createdAt,value
2018-04-01T00:00:50.353Z,21.60
2018-04-01T00:01:50.305Z,20.80
2018-04-01T00:02:50.261Z,21.20
2018-04-01T00:03:50.213Z,21.30
2018-04-01T00:04:50.170Z,21.70
2018-04-01T00:05:50.123Z,21.40
2018-04-01T00:06:50.076Z,21.60
2018-04-01T00:07:50.033Z,19.40
2018-04-01T00:08:49.985Z,20.20
2018-04-01T00:09:49.948Z,20.60
2018-04-01T00:10:49.897Z,20.90
2018-04-01T00:11:49.849Z,20.50
2018-04-01T00:12:49.801Z,20.40
2018-04-01T00:13:49.762Z,20.90
2018-04-01T00:14:49.713Z,21.10
2018-04-01T00:15:49.668Z,22.20
2018-04-01T00:16:49.621Z,22.10
2018-04-01T00:17:49.577Z,20.60
2018-04-01T00:18:49.529Z,21.10
2018-04-01T00:19:49.485Z,20.00
2018-04-01T00:20:49.440Z,19.50
2018-04-01T00:21:49.394Z,20.20
2018-04-01T00:22:49.348Z,20.10
2018-04-01T00:23:49.304Z,21.70
2018-04-01T00:24:49.257Z,21.40
2018-04-01T00:25:49.212Z,22.00
2018-04-01T00:26:49.165Z,22.20
2018-04-01T00:27:49.119Z,21.30
2018-04-01T00:28:49.078Z,21.80
2018-04-01T00:29:49.031Z,21.50
2018-04-01T00:30:48.985Z,21.70
2018-04-01T00:31:48.937Z,22.20
2018-04-01T00:32:48.892Z,22.50
2018-04-01T00:33:48.848Z,22.40
2018-04-01T00:34:48.802Z,22.60
2018-04-01T00:35:48.757Z,23.30
2018-04-01T00:36:48.723Z,25.40
2018-04-01T00:37:48.663Z,23.00
2018-04-01T00:38:48.619Z,22.80
2018-04-01T00:39:48.574Z,23.00
2018-04-01T00:40:48.528Z,22.60
2018-04-01T00:41:48.486Z,22.00
2018-04-01T00:42:48.437Z,21.90
2018-04-01T00:43:48.391Z,21.10
2018-04-01T00:44:48.348Z,21.20
2018-04-01T00:45:48.300Z,21.80
2018-04-01T00:46:48.252Z,23.10
2018-04-01T00:47:48.270Z,22.20
2018-04-01T00:48:48.162Z,21.50
2018-04-01T00:49:48.117Z,21.60
2018-04-01T00:50:48.070Z,21.70
2018-04-01T00:51:48.025Z,20.40
2018-04-01T00:52:47.980Z,20.50
2018-04-01T00:53:47.934Z,19.60
2018-04-01T00:54:47.889Z,21.20
2018-04-01T00:55:47.841Z,20.50
2018-04-01T00:56:47.798Z,19.70
2018-04-01T00:57:47.751Z,20.20
2018-04-01T00:58:47.708Z,19.80
2018-04-01T00:59:47.666Z,20.00
2018-04-01T01:00:47.615Z,19.50
2018-04-01T01:01:47.569Z,18.90
2018-04-01T01:02:47.524Z,19.30
2018-04-01T01:03:47.478Z,18.50
2018-04-01T01:04:47.432Z,17.70
2018-04-01T01:05:47.392Z,17.40
2018-04-01T01:06:47.345Z,18.20
2018-04-01T01:07:47.298Z,17.90
2018-04-01T01:08:47.252Z,17.70
2018-04-01T01:09:47.202Z,17.90
2018-04-01T01:10:47.164Z,17.00
2018-04-01T01:11:47.111Z,17.00
2018-04-01T01:12:47.068Z,17.10
2018-04-01T01:13:47.023Z,17.70
2018-04-01T01:14:46.975Z,17.60
2018-04-01T01:15:46.932Z,18.00
2018-04-01T01:16:46.882Z,17.60
2018-04-01T01:17:46.838Z,18.30
2018-04-01T01:18:46.791Z,18.00
2018-04-01T01:19:46.746Z,17.60
2018-04-01T01:20:46.700Z,17.70
2018-04-01T01:21:46.658Z,18.70
2018-04-01T01:22:46.607Z,18.60
2018-04-01T01:23:46.562Z,18.00
2018-04-01T01:24:46.517Z,18.60
2018-04-01T01:25:46.499Z,19.00
2018-04-01T01:26:46.425Z,18.40
2018-04-01T01:27:46.380Z,19.90
2018-04-01T01:28:46.333Z,18.60
2018-04-01T01:29:46.289Z,19.70
2018-04-01T01:30:46.248Z,20.10
2018-04-01T01:31:46.199Z,20.70
2018-04-01T01:32:46.152Z,20.10
2018-04-01T01:33:46.108Z,19.30
2018-04-01T01:34:46.061Z,19.50
2018-04-01T01:35:46.016Z,20.20
2018-04-01T01:36:45.970Z,20.80
2018-04-01T01:37:45.926Z,20.20
2018-04-01T01:38:45.877Z,20.60
2018-04-01T01:39:45.833Z,20.70
2018-04-01T01:40:45.789Z,19.70
2018-04-01T01:41:45.746Z,20.30
2018-04-01T01:42:45.699Z,20.40
2018-04-01T01:43:45.651Z,20.30
2018-04-01T01:44:45.606Z,20.30
2018-04-01T01:45:45.561Z,20.60
2018-04-01T01:46:45.514Z,21.10
2018-04-01T01:47:45.471Z,20.60
2018-04-01T01:48:45.422Z,20.60
2018-04-01T01:49:45.377Z,20.20
2018-04-01T01:50:45.333Z,21.20
2018-04-01T01:51:45.289Z,21.20
2018-04-01T01:52:45.244Z,21.50
2018-04-01T01:53:45.200Z,20.70
2018-04-01T01:54:45.149Z,20.60
2018-04-01T01:55:45.108Z,19.40
2018-04-01T01:56:45.059Z,19.10
2018-04-01T01:57:45.020Z,19.80
2018-04-01T01:58:44.969Z,20.20
2018-04-01T01:59:44.926Z,21.10
2018-04-01T02:00:44.877Z,21.40
2018-04-01T02:01:44.834Z,21.30
2018-04-01T02:02:44.788Z,22.30
2018-04-01T02:03:44.740Z,22.10
2018-04-01T02:04:44.695Z,20.80
2018-04-01T02:05:44.651Z,20.70
2018-04-01T02:06:44.607Z,21.40
2018-04-01T02:07:44.558Z,22.60
2018-04-01T02:08:44.516Z,21.50
2018-04-01T02:09:44.468Z,21.70
2018-04-01T02:10:44.424Z,22.10
2018-04-01T02:11:44.377Z,22.00
2018-04-01T02:12:44.334Z,21.10
2018-04-01T02:13:44.286Z,22.90
2018-04-01T02:14:44.240Z,21.80
2018-04-01T02:15:44.197Z,21.70
2018-04-01T02:16:44.156Z,21.50
2018-04-01T02:17:44.104Z,20.90
2018-04-01T02:18:44.063Z,22.10
2018-04-01T02:19:44.013Z,22.40
2018-04-01T02:20:43.967Z,23.80
2018-04-01T02:21:43.929Z,24.00
2018-04-01T02:22:43.876Z,23.60
2018-04-01T02:23:43.832Z,24.00
2018-04-01T02:24:43.784Z,24.40
2018-04-01T02:25:43.741Z,23.30
2018-04-01T02:26:43.693Z,24.40
2018-04-01T02:27:43.664Z,23.60
2018-04-01T02:28:43.608Z,23.20
2018-04-01T02:29:43.558Z,24.00
2018-04-01T02:30:43.512Z,22.90
2018-04-01T02:31:43.467Z,23.50
2018-04-01T02:32:43.421Z,23.20
2018-04-01T02:33:43.376Z,23.00
2018-04-01T02:34:43.330Z,24.30
2018-04-01T02:35:43.282Z,23.80
2018-04-01T02:36:43.242Z,23.40
2018-04-01T02:37:43.193Z,22.80
2018-04-01T02:38:43.146Z,23.30
2018-04-01T02:39:43.102Z,23.10
2018-04-01T02:40:43.058Z,23.20
2018-04-01T02:41:43.013Z,23.50
2018-04-01T02:42:42.963Z,24.00
2018-04-01T02:43:42.917Z,22.60
2018-04-01T02:44:42.875Z,23.30
2018-04-01T02:45:42.827Z,23.70
2018-04-01T02:46:42.781Z,23.80
2018-04-01T02:47:42.736Z,23.70
2018-04-01T02:48:42.691Z,23.70
2018-04-01T02:49:42.643Z,22.90
2018-04-01T02:50:42.601Z,23.60
2018-04-01T02:51:42.557Z,22.90
2018-04-01T02:52:42.507Z,22.90
2018-04-01T02:53:42.461Z,22.10
2018-04-01T02:54:42.417Z,23.10
2018-04-01T02:55:42.372Z,22.80
2018-04-01T02:56:42.325Z,23.10
2018-04-01T02:57:42.278Z,21.90
2018-04-01T02:58:42.234Z,22.30
2018-04-01T02:59:42.188Z,23.60
2018-04-01T03:00:42.140Z,22.60
2018-04-01T03:01:42.097Z,22.30
2018-04-01T03:02:42.049Z,22.60
2018-04-01T03:03:42.006Z,22.70
2018-04-01T03:04:41.958Z,22.90
2018-04-01T03:05:41.913Z,22.60
2018-04-01T03:06:41.868Z,23.60
2018-04-01T03:07:41.825Z,22.80
2018-04-01T03:08:41.776Z,22.60
2018-04-01T03:09:41.734Z,22.70
2018-04-01T03:10:41.684Z,22.60
2018-04-01T03:11:41.642Z,21.80
2018-04-01T03:12:41.591Z,21.90
2018-04-01T03:13:41.550Z,22.70
2018-04-01T03:14:41.504Z,21.60
2018-04-01T03:15:41.456Z,24.00
2018-04-01T03:16:41.414Z,22.10
2018-04-01T03:17:41.374Z,21.70
2018-04-01T03:18:41.319Z,21.40
2018-04-01T03:19:41.272Z,22.30
2018-04-01T03:20:41.227Z,22.10
2018-04-01T03:21:41.183Z,21.90
2018-04-01T03:22:41.135Z,22.20
2018-04-01T03:23:41.090Z,22.00
2018-04-01T03:24:41.052Z,22.60
2018-04-01T03:25:41.001Z,20.80
2018-04-01T03:26:40.955Z,21.70
2018-04-01T03:27:40.913Z,21.10
2018-04-01T03:28:40.869Z,21.50
2018-04-01T03:29:40.818Z,21.60
2018-04-01T03:30:40.774Z,21.50
2018-04-01T03:31:40.726Z,22.50
2018-04-01T03:32:40.679Z,21.70
2018-04-01T03:33:40.638Z,20.80
2018-04-01T03:34:40.590Z,22.40
2018-04-01T03:35:40.549Z,21.10
2018-04-01T03:36:40.502Z,21.50
2018-04-01T03:37:40.450Z,22.10
2018-04-01T03:38:40.404Z,22.00
2018-04-01T03:39:40.361Z,20.70
2018-04-01T03:40:40.313Z,22.00
2018-04-01T03:41:40.268Z,23.10
2018-04-01T03:42:40.224Z,22.30
2018-04-01T03:43:40.178Z,22.20
2018-04-01T03:44:40.134Z,21.70
2018-04-01T03:45:40.087Z,22.70
2018-04-01T03:46:40.041Z,22.90
2018-04-01T03:47:39.994Z,22.30
2018-04-01T03:48:39.948Z,22.90
2018-04-01T03:49:39.900Z,22.80
2018-04-01T03:50:39.932Z,23.20
2018-04-01T03:51:40.464Z,22.30
2018-04-01T03:52:39.764Z,23.00
2018-04-01T03:53:39.717Z,22.40
2018-04-01T03:54:39.674Z,23.20
2018-04-01T03:55:39.627Z,22.70
2018-04-01T03:56:39.581Z,23.40
2018-04-01T03:57:39.537Z,23.60
2018-04-01T03:58:39.493Z,23.30
2018-04-01T03:59:39.444Z,23.30
2018-04-01T04:00:39.400Z,22.90
2018-04-01T04:01:39.352Z,23.30
2018-04-01T04:02:39.305Z,24.40
2018-04-01T04:03:39.265Z,23.70
2018-04-01T04:04:39.217Z,23.00
2018-04-01T04:05:39.170Z,23.70
2018-04-01T04:06:39.126Z,23.60
2018-04-01T04:07:39.078Z,23.30
2018-04-01T04:08:39.036Z,24.00
2018-04-01T04:09:38.989Z,23.70
2018-04-01T04:10:38.940Z,23.90
2018-04-01T04:11:38.896Z,24.50
2018-04-01T04:12:38.849Z,24.40
2018-04-01T04:13:38.803Z,23.70
2018-04-01T04:14:38.762Z,23.70
2018-04-01T04:15:38.711Z,24.10
2018-04-01T04:16:38.669Z,24.30
2018-04-01T04:17:38.678Z,23.80
2018-04-01T04:18:38.575Z,24.80
2018-04-01T04:19:38.531Z,23.70
2018-04-01T04:20:38.486Z,25.50
2018-04-01T04:21:38.440Z,24.30
2018-04-01T04:22:38.394Z,25.00
2018-04-01T04:23:38.349Z,24.90
2018-04-01T04:24:38.305Z,25.20
2018-04-01T04:25:38.255Z,26.20
2018-04-01T04:26:38.207Z,25.90
2018-04-01T04:27:38.168Z,26.40
2018-04-01T04:28:38.120Z,26.40
2018-04-01T04:29:38.074Z,25.90
2018-04-01T04:30:38.026Z,26.40
2018-04-01T04:31:37.979Z,27.20
2018-04-01T04:32:37.936Z,26.80
2018-04-01T04:33:37.890Z,27.10
2018-04-01T04:34:37.845Z,27.80
2018-04-01T04:35:37.813Z,27.60
2018-04-01T04:36:37.755Z,28.10
2018-04-01T04:37:37.708Z,28.20
2018-04-01T04:38:37.658Z,28.50
2018-04-01T04:39:37.621Z,28.60
2018-04-01T04:40:37.566Z,28.00
2018-04-01T04:41:37.523Z,28.40
2018-04-01T04:42:37.474Z,27.50
2018-04-01T04:43:37.430Z,29.40
2018-04-01T04:44:37.385Z,28.10
2018-04-01T04:45:37.340Z,28.10
2018-04-01T04:46:37.297Z,29.00
2018-04-01T04:47:37.246Z,28.80
2018-04-01T04:48:37.203Z,28.90
2018-04-01T04:49:37.159Z,29.00
2018-04-01T04:50:37.108Z,27.80
2018-04-01T04:51:37.065Z,27.30
2018-04-01T04:52:37.020Z,27.20
2018-04-01T04:53:36.974Z,27.50
2018-04-01T04:54:36.926Z,26.00
2018-04-01T04:55:36.881Z,25.30
2018-04-01T04:56:36.843Z,25.50
2018-04-01T04:57:36.791Z,25.20
2018-04-01T04:58:36.745Z,23.70
2018-04-01T04:59:36.703Z,21.50
2018-04-01T05:00:36.650Z,19.20
2018-04-01T05:01:36.607Z,19.30
2018-04-01T05:02:36.559Z,18.70
2018-04-01T05:03:36.515Z,18.50
2018-04-01T05:04:36.472Z,18.30
2018-04-01T05:05:36.424Z,15.90
2018-04-01T05:06:36.379Z,15.60
2018-04-01T05:07:36.333Z,15.40
2018-04-01T05:08:36.291Z,14.60
2018-04-01T05:09:36.243Z,14.70
2018-04-01T05:10:36.196Z,16.00
2018-04-01T05:11:36.156Z,14.70
2018-04-01T05:12:36.102Z,15.70
2018-04-01T05:13:36.059Z,16.00
2018-04-01T05:14:36.011Z,15.50
2018-04-01T05:15:35.964Z,14.80
2018-04-01T05:16:35.919Z,13.80
2018-04-01T05:17:35.873Z,15.20
2018-04-01T05:18:35.826Z,14.30
2018-04-01T05:19:35.786Z,14.10
2018-04-01T05:20:35.736Z,14.80
2018-04-01T05:21:35.690Z,14.70
2018-04-01T05:22:35.646Z,14.20
2018-04-01T05:23:35.600Z,14.00
2018-04-01T05:24:35.557Z,14.30
2018-04-01T05:25:35.508Z,14.70
2018-04-01T05:26:35.459Z,14.70
2018-04-01T05:27:35.414Z,15.00
2018-04-01T05:28:35.368Z,14.80
2018-04-01T05:29:35.337Z,14.90
2018-04-01T05:30:35.280Z,15.60
2018-04-01T05:31:35.236Z,16.10
2018-04-01T05:32:35.185Z,16.40
2018-04-01T05:33:35.142Z,17.60
2018-04-01T05:34:35.094Z,17.20
2018-04-01T05:35:35.046Z,17.70
2018-04-01T05:36:35.000Z,18.10
2018-04-01T05:37:34.958Z,18.70
2018-04-01T05:38:34.911Z,18.50
2018-04-01T05:39:34.867Z,18.40
2018-04-01T05:40:34.818Z,17.60
2018-04-01T05:41:34.772Z,17.20
2018-04-01T05:42:34.727Z,17.30
2018-04-01T05:43:34.680Z,17.10
2018-04-01T05:44:34.634Z,16.60
2018-04-01T05:45:34.590Z,16.30
2018-04-01T05:46:34.544Z,17.30
2018-04-01T05:47:34.499Z,16.50
2018-04-01T05:48:34.451Z,15.30
2018-04-01T05:49:34.408Z,15.30
2018-04-01T05:50:34.360Z,13.60
2018-04-01T05:51:34.319Z,14.20
2018-04-01T05:52:34.266Z,14.30
2018-04-01T05:53:34.227Z,15.00
2018-04-01T05:54:34.175Z,13.50
2018-04-01T05:55:34.127Z,14.00
2018-04-01T05:56:34.083Z,12.50
2018-04-01T05:57:34.041Z,12.30
2018-04-01T05:58:33.992Z,12.70
2018-04-01T05:59:33.944Z,12.40
2018-04-01T06:00:33.896Z,12.40
2018-04-01T06:01:33.857Z,13.40
2018-04-01T06:02:33.806Z,12.80
2018-04-01T06:03:33.759Z,13.90
2018-04-01T06:04:33.719Z,13.50
2018-04-01T06:05:33.667Z,13.00
2018-04-01T06:06:33.624Z,13.70
2018-04-01T06:07:33.576Z,13.60
2018-04-01T06:08:33.532Z,13.40
2018-04-01T06:09:33.489Z,13.70
2018-04-01T06:10:33.438Z,14.00
2018-04-01T06:11:33.392Z,13.50
2018-04-01T06:12:33.347Z,13.30
2018-04-01T06:13:33.300Z,13.70
2018-04-01T06:14:33.251Z,13.20
2018-04-01T06:15:33.208Z,14.00
2018-04-01T06:16:33.162Z,14.40
2018-04-01T06:17:33.115Z,13.80
2018-04-01T06:18:33.070Z,13.80
2018-04-01T06:19:33.025Z,14.10
2018-04-01T06:20:32.977Z,14.70
2018-04-01T06:21:32.931Z,14.60
2018-04-01T06:22:32.888Z,14.60
2018-04-01T06:23:32.837Z,15.50
2018-04-01T06:24:32.793Z,15.50
2018-04-01T06:25:32.747Z,16.40
2018-04-01T06:26:32.705Z,15.90
2018-04-01T06:27:32.658Z,17.10
2018-04-01T06:28:32.610Z,16.90
2018-04-01T06:29:32.563Z,18.10
2018-04-01T06:30:32.516Z,18.40
2018-04-01T06:31:32.477Z,17.70
2018-04-01T06:32:32.425Z,19.00
2018-04-01T06:33:32.379Z,19.80
2018-04-01T06:34:32.333Z,20.70
2018-04-01T06:35:32.288Z,20.40
2018-04-01T06:36:32.243Z,21.00
2018-04-01T06:37:32.198Z,21.70
2018-04-01T06:38:32.148Z,22.40
2018-04-01T06:39:32.107Z,22.60
2018-04-01T06:40:32.060Z,22.30
2018-04-01T06:41:32.013Z,23.80
2018-04-01T06:42:31.970Z,24.40
2018-04-01T06:43:31.922Z,24.60
2018-04-01T06:44:31.873Z,25.50
2018-04-01T06:45:31.875Z,26.70
2018-04-01T06:46:31.785Z,28.10
2018-04-01T06:47:31.738Z,29.70
2018-04-01T06:48:31.693Z,31.60
2018-04-01T06:49:31.645Z,29.80
2018-04-01T06:50:31.600Z,29.30
2018-04-01T06:51:31.552Z,32.20
2018-04-01T06:52:31.509Z,31.80
2018-04-01T06:53:31.467Z,32.10
2018-04-01T06:54:31.426Z,33.60
2018-04-01T06:55:31.371Z,34.40
2018-04-01T06:56:31.324Z,35.50
2018-04-01T06:57:31.285Z,34.30
2018-04-01T06:58:31.237Z,34.80
2018-04-01T06:59:31.187Z,35.20
2018-04-01T07:00:31.142Z,34.50
2018-04-01T07:01:31.097Z,34.80
2018-04-01T07:02:31.075Z,35.40
2018-04-01T07:03:31.018Z,35.50
2018-04-01T07:04:30.960Z,38.30
2018-04-01T07:05:31.139Z,37.70
2018-04-01T07:06:30.865Z,37.70
2018-04-01T07:07:30.820Z,36.40
2018-04-01T07:08:30.777Z,36.80
2018-04-01T07:09:30.733Z,37.20
2018-04-01T07:10:30.696Z,38.80
2018-04-01T07:11:30.638Z,38.20
2018-04-01T07:12:30.594Z,40.10
2018-04-01T07:13:30.548Z,39.50
2018-04-01T07:14:30.504Z,39.60
2018-04-01T07:15:30.458Z,39.00
2018-04-01T07:16:30.409Z,40.50
2018-04-01T07:17:30.370Z,39.90
2018-04-01T07:18:30.318Z,42.40
2018-04-01T07:19:30.286Z,42.40
2018-04-01T07:20:30.228Z,42.90
2018-04-01T07:21:30.188Z,43.00
2018-04-01T07:22:30.146Z,43.60
2018-04-01T07:23:30.093Z,46.00
2018-04-01T07:24:30.043Z,46.30
2018-04-01T07:25:30.006Z,46.20
2018-04-01T07:26:29.958Z,45.50
2018-04-01T07:27:29.909Z,45.20
2018-04-01T07:28:29.866Z,45.30
2018-04-01T07:29:29.821Z,46.00
2018-04-01T07:30:29.773Z,44.70
2018-04-01T07:31:29.722Z,45.60
2018-04-01T07:32:29.680Z,43.30
2018-04-01T07:33:29.631Z,43.00
2018-04-01T07:34:29.586Z,46.10
2018-04-01T07:35:29.540Z,42.60
2018-04-01T07:36:29.493Z,43.70
2018-04-01T07:37:29.448Z,44.80
2018-04-01T07:38:29.405Z,46.20
2018-04-01T07:39:29.357Z,43.30
2018-04-01T07:40:29.316Z,45.00
2018-04-01T07:41:29.274Z,47.00
2018-04-01T07:42:29.221Z,44.40
2018-04-01T07:43:29.178Z,45.90
2018-04-01T07:44:29.129Z,47.00
2018-04-01T07:45:29.150Z,45.60
2018-04-01T07:46:29.038Z,47.80
2018-04-01T07:47:28.996Z,49.00
2018-04-01T07:48:28.950Z,44.30
2018-04-01T07:49:28.904Z,45.70
2018-04-01T07:50:28.856Z,47.60
2018-04-01T07:51:28.812Z,47.00
2018-04-01T07:52:28.776Z,47.90
2018-04-01T07:53:28.720Z,47.30
2018-04-01T07:54:28.672Z,46.40
2018-04-01T07:55:28.628Z,48.10
2018-04-01T07:56:28.582Z,46.10
2018-04-01T07:57:28.541Z,46.50
2018-04-01T07:58:28.492Z,45.90
2018-04-01T07:59:28.451Z,46.90
2018-04-01T08:00:28.405Z,46.20
2018-04-01T08:01:28.356Z,49.40
2018-04-01T08:02:28.309Z,48.40
2018-04-01T08:03:28.263Z,46.70
2018-04-01T08:04:28.218Z,46.80
2018-04-01T08:05:28.174Z,48.20
2018-04-01T08:06:28.124Z,49.40
2018-04-01T08:07:28.083Z,48.60
2018-04-01T08:08:28.036Z,48.20
2018-04-01T08:09:27.993Z,46.10
2018-04-01T08:10:27.946Z,48.80
2018-04-01T08:11:27.904Z,47.10
2018-04-01T08:12:27.856Z,46.50
2018-04-01T08:13:27.813Z,45.80
2018-04-01T08:14:27.766Z,45.90
2018-04-01T08:15:27.718Z,47.30
2018-04-01T08:16:27.676Z,47.50
2018-04-01T08:17:27.630Z,49.20
2018-04-01T08:18:27.582Z,44.70
2018-04-01T08:19:27.537Z,46.90
2018-04-01T08:20:27.501Z,42.80
2018-04-01T08:21:27.456Z,42.50
2018-04-01T08:22:27.402Z,43.10
2018-04-01T08:23:27.419Z,44.40
2018-04-01T08:24:27.316Z,44.60
2018-04-01T08:25:27.266Z,42.10
2018-04-01T08:26:27.220Z,40.40
2018-04-01T08:27:27.176Z,39.30
2018-04-01T08:28:27.140Z,36.90
2018-04-01T08:29:27.086Z,36.40
2018-04-01T08:30:27.039Z,37.00
2018-04-01T08:31:26.998Z,36.20
2018-04-01T08:32:26.953Z,37.50
2018-04-01T08:33:26.904Z,36.70
2018-04-01T08:34:26.857Z,34.30
2018-04-01T08:35:26.815Z,35.40
2018-04-01T08:36:26.771Z,35.80
2018-04-01T08:37:26.721Z,34.70
2018-04-01T08:38:26.678Z,36.30
2018-04-01T08:39:26.635Z,36.20
2018-04-01T08:40:26.594Z,34.90
2018-04-01T08:41:26.540Z,35.10
2018-04-01T08:42:26.495Z,36.50
2018-04-01T08:43:26.451Z,35.10
2018-04-01T08:44:26.408Z,35.60
2018-04-01T08:45:26.358Z,32.00
2018-04-01T08:46:26.312Z,33.70
2018-04-01T08:47:26.271Z,35.00
2018-04-01T08:48:26.225Z,34.90
2018-04-01T08:49:26.179Z,34.90
2018-04-01T08:50:26.131Z,35.20
2018-04-01T08:51:26.086Z,33.80
2018-04-01T08:52:26.043Z,34.50
2018-04-01T08:53:25.997Z,35.00
2018-04-01T08:54:25.951Z,34.80
2018-04-01T08:55:25.905Z,35.70
2018-04-01T08:56:25.870Z,33.60
2018-04-01T08:57:25.817Z,35.90
2018-04-01T08:58:25.770Z,34.10
2018-04-01T08:59:25.745Z,34.80
2018-04-01T09:00:25.690Z,34.20
2018-04-01T09:01:25.635Z,35.40
2018-04-01T09:02:25.588Z,35.10
2018-04-01T09:03:25.545Z,34.60
2018-04-01T09:04:25.545Z,34.30
2018-04-01T09:05:25.464Z,34.20
2018-04-01T09:06:25.412Z,34.10
2018-04-01T09:07:25.364Z,35.10
2018-04-01T09:08:25.318Z,34.90
2018-04-01T09:09:25.271Z,35.20
2018-04-01T09:10:25.254Z,33.60
2018-04-01T09:11:25.180Z,34.60
2018-04-01T09:12:25.137Z,34.40
2018-04-01T09:13:25.093Z,35.90
2018-04-01T09:14:25.047Z,33.60
2018-04-01T09:15:24.999Z,34.00
2018-04-01T09:16:25.054Z,33.40
2018-04-01T09:17:24.912Z,36.60
2018-04-01T09:18:24.862Z,35.60
2018-04-01T09:19:24.825Z,34.80
2018-04-01T09:20:24.775Z,35.60
2018-04-01T09:21:24.729Z,33.00
2018-04-01T09:22:24.729Z,34.70
2018-04-01T09:23:24.641Z,34.60
2018-04-01T09:24:24.649Z,36.30
2018-04-01T09:25:24.631Z,37.50
2018-04-01T09:26:24.503Z,35.10
2018-04-01T09:27:24.462Z,34.20
2018-04-01T09:28:24.412Z,35.50
2018-04-01T09:29:24.366Z,35.40
2018-04-01T09:30:24.322Z,37.10
2018-04-01T09:31:24.278Z,37.10
2018-04-01T09:32:24.234Z,35.40
2018-04-01T09:33:24.193Z,36.30
2018-04-01T09:34:24.141Z,34.60
2018-04-01T09:35:24.094Z,34.50
2018-04-01T09:36:24.047Z,35.40
2018-04-01T09:37:24.008Z,34.10
2018-04-01T09:38:23.960Z,34.00
2018-04-01T09:39:23.944Z,35.00
2018-04-01T09:40:23.873Z,35.70
2018-04-01T09:41:23.828Z,34.20
2018-04-01T09:42:23.777Z,34.20
2018-04-01T09:43:23.732Z,34.40
2018-04-01T09:44:23.687Z,35.40
2018-04-01T09:45:23.640Z,34.80
2018-04-01T09:46:23.594Z,34.50
2018-04-01T09:47:23.550Z,34.80
2018-04-01T09:48:23.508Z,37.20
2018-04-01T09:49:23.461Z,35.50
2018-04-01T09:50:23.414Z,32.60
2018-04-01T09:51:23.370Z,35.50
2018-04-01T09:52:23.325Z,30.40
2018-04-01T09:53:23.279Z,32.30
2018-04-01T09:54:23.233Z,33.50
2018-04-01T09:55:23.195Z,32.90
2018-04-01T09:56:23.188Z,31.60
2018-04-01T09:57:23.100Z,31.70
2018-04-01T09:58:23.058Z,31.70
2018-04-01T09:59:23.104Z,30.60
2018-04-01T10:00:22.966Z,31.30
2018-04-01T10:01:22.917Z,31.00
2018-04-01T10:02:22.871Z,32.80
2018-04-01T10:03:22.855Z,30.80
2018-04-01T10:04:22.785Z,32.20
2018-04-01T10:05:22.741Z,31.70
2018-04-01T10:06:22.693Z,32.10
2018-04-01T10:07:22.644Z,32.70
2018-04-01T10:08:22.605Z,32.60
2018-04-01T10:09:22.556Z,32.80
2018-04-01T10:10:22.523Z,30.60
2018-04-01T10:11:22.465Z,30.60
2018-04-01T10:12:22.424Z,31.60
2018-04-01T10:13:22.379Z,31.40
2018-04-01T10:14:22.342Z,30.20
2018-04-01T10:15:22.285Z,30.50
2018-04-01T10:16:22.243Z,28.70
2018-04-01T10:17:22.195Z,28.50
2018-04-01T10:18:22.152Z,28.80
2018-04-01T10:19:22.122Z,30.40
2018-04-01T10:20:22.060Z,29.90
2018-04-01T10:21:22.015Z,28.70
2018-04-01T10:22:21.966Z,28.90
2018-04-01T10:23:21.925Z,30.10
2018-04-01T10:24:21.878Z,28.90
2018-04-01T10:25:21.837Z,29.40
2018-04-01T10:26:21.791Z,29.50
2018-04-01T10:27:21.742Z,28.80
2018-04-01T10:28:21.704Z,29.40
2018-04-01T10:29:21.652Z,28.20
2018-04-01T10:30:21.607Z,29.60
2018-04-01T10:31:21.562Z,28.20
2018-04-01T10:32:21.526Z,32.00
2018-04-01T10:33:21.472Z,28.30
2018-04-01T10:34:21.428Z,29.50
2018-04-01T10:35:21.381Z,29.60
2018-04-01T10:36:21.340Z,30.70
2018-04-01T10:37:21.296Z,29.10
2018-04-01T10:38:21.251Z,28.60
2018-04-01T10:39:21.203Z,24.90
2018-04-01T10:40:21.159Z,27.50
2018-04-01T10:41:21.116Z,28.70
2018-04-01T10:42:21.066Z,35.90
2018-04-01T10:43:21.022Z,36.60
2018-04-01T10:44:20.975Z,40.80
2018-04-01T10:45:20.933Z,43.90
2018-04-01T10:46:20.894Z,47.80
2018-04-01T10:47:20.842Z,47.70
2018-04-01T10:48:20.795Z,47.40
2018-04-01T10:49:20.751Z,50.70
2018-04-01T10:50:20.707Z,50.30
2018-04-01T10:51:20.660Z,55.70
2018-04-01T10:52:20.616Z,59.30
2018-04-01T10:53:20.579Z,63.20
2018-04-01T10:54:20.524Z,61.30
2018-04-01T10:55:20.488Z,63.50
2018-04-01T10:56:20.442Z,63.90
2018-04-01T10:57:20.389Z,68.80
2018-04-01T10:58:20.345Z,68.30
2018-04-01T10:59:20.304Z,67.70
2018-04-01T11:00:20.262Z,67.40
2018-04-01T11:01:20.212Z,67.30
2018-04-01T11:02:20.166Z,66.40
2018-04-01T11:03:20.126Z,65.90
2018-04-01T11:04:20.081Z,66.00
2018-04-01T11:05:20.036Z,66.90
2018-04-01T11:06:19.996Z,72.10
2018-04-01T11:07:19.953Z,69.50
2018-04-01T11:08:19.903Z,65.50
2018-04-01T11:09:19.865Z,71.50
2018-04-01T11:10:19.806Z,65.80
2018-04-01T11:11:19.765Z,67.80
2018-04-01T11:12:19.717Z,68.40
2018-04-01T11:13:19.676Z,72.50
2018-04-01T11:14:19.635Z,71.60
2018-04-01T11:15:19.580Z,67.40
2018-04-01T11:16:19.548Z,68.10
2018-04-01T11:17:19.494Z,71.10
2018-04-01T11:18:19.445Z,70.00
2018-04-01T11:19:19.398Z,70.60
2018-04-01T11:20:19.351Z,72.10
2018-04-01T11:21:19.309Z,70.40
2018-04-01T11:22:19.268Z,71.60
2018-04-01T11:23:19.216Z,71.30
2018-04-01T11:24:19.174Z,71.00
2018-04-01T11:25:19.129Z,70.40
2018-04-01T11:26:19.082Z,74.30
2018-04-01T11:27:19.074Z,74.80
2018-04-01T11:28:18.995Z,74.90
2018-04-01T11:29:18.948Z,76.60
2018-04-01T11:30:18.900Z,77.90
2018-04-01T11:31:18.857Z,74.90
2018-04-01T11:32:18.812Z,75.80
2018-04-01T11:33:18.766Z,79.10
2018-04-01T11:34:18.722Z,80.40
2018-04-01T11:35:18.684Z,70.20
2018-04-01T11:36:18.631Z,69.70
2018-04-01T11:37:18.585Z,64.60
2018-04-01T11:38:18.541Z,61.00
2018-04-01T11:39:18.551Z,63.00
2018-04-01T11:40:18.450Z,62.10
2018-04-01T11:41:18.407Z,60.80
2018-04-01T11:42:18.364Z,64.70
2018-04-01T11:43:18.314Z,66.30
2018-04-01T11:44:18.270Z,66.20
2018-04-01T11:45:18.223Z,71.60
2018-04-01T11:46:18.189Z,70.70
2018-04-01T11:47:18.133Z,69.70
2018-04-01T11:48:18.089Z,73.40
2018-04-01T11:49:18.046Z,74.20
2018-04-01T11:50:17.999Z,71.70
2018-04-01T11:51:17.953Z,66.70
2018-04-01T11:53:17.865Z,83.40
2018-04-01T11:54:17.821Z,74.00
2018-04-01T11:55:17.775Z,72.40
2018-04-01T11:56:17.729Z,67.70
2018-04-01T11:57:17.688Z,73.50
2018-04-01T11:58:17.641Z,70.40
2018-04-01T11:59:17.595Z,72.70
2018-04-01T12:00:17.614Z,69.90
2018-04-01T12:01:17.580Z,61.20
2018-04-01T12:02:17.466Z,63.50
2018-04-01T12:03:17.416Z,59.20
2018-04-01T12:04:17.368Z,63.80
2018-04-01T12:05:17.327Z,72.60
2018-04-01T12:06:17.280Z,66.10
2018-04-01T12:07:17.237Z,61.80
2018-04-01T12:08:17.192Z,57.30
2018-04-01T12:09:17.147Z,64.20
2018-04-01T12:10:17.101Z,58.50
2018-04-01T12:11:17.058Z,58.90
2018-04-01T12:12:17.016Z,57.00
2018-04-01T12:13:16.970Z,55.20
2018-04-01T12:14:16.957Z,48.00
2018-04-01T12:15:16.879Z,48.60
2018-04-01T12:16:16.838Z,48.00
2018-04-01T12:17:16.791Z,50.50
2018-04-01T12:18:16.754Z,51.70
2018-04-01T12:19:16.703Z,47.80
2018-04-01T12:20:16.711Z,51.60
2018-04-01T12:21:16.622Z,50.80
2018-04-01T12:22:16.572Z,49.40
2018-04-01T12:23:16.527Z,53.10
2018-04-01T12:24:16.484Z,52.50
2018-04-01T12:25:16.439Z,51.00
2018-04-01T12:26:16.396Z,50.80
2018-04-01T12:27:16.369Z,51.50
2018-04-01T12:28:16.306Z,50.40
2018-04-01T12:29:16.260Z,54.30
2018-04-01T12:30:16.216Z,52.00
2018-04-01T12:31:16.175Z,44.40
2018-04-01T12:32:16.128Z,45.00
2018-04-01T12:33:16.140Z,41.90
2018-04-01T12:34:16.045Z,43.10
2018-04-01T12:35:15.994Z,42.60
2018-04-01T12:36:15.960Z,43.10
2018-04-01T12:37:15.919Z,45.00
2018-04-01T12:38:15.867Z,44.20
2018-04-01T12:39:15.830Z,44.20
2018-04-01T12:40:15.776Z,46.70
2018-04-01T12:41:15.734Z,48.40
2018-04-01T12:42:15.689Z,45.30
2018-04-01T12:43:15.641Z,47.60
2018-04-01T12:44:15.599Z,48.40
2018-04-01T12:45:15.562Z,50.00
2018-04-01T12:46:15.508Z,49.10
2018-04-01T12:47:15.462Z,48.30
2018-04-01T12:48:15.421Z,46.10
2018-04-01T12:49:15.373Z,46.70
2018-04-01T12:50:15.327Z,42.30
2018-04-01T12:51:15.289Z,40.60
2018-04-01T12:52:15.239Z,39.50
2018-04-01T12:53:15.196Z,39.50